logo
Search for airport 
image banner adimage banner adimage banner ad
image banner ad

LZMA - Martin

Located in Martin, Slovakia

ICAO - LZMA, IATA -

Data provided by Airmate  

General information

Coordinates: N49°3'55" E18°57'3"
Elevation is 1377 feet MSL.
Magnetic variation is 4.5897° East
View others Airports in Žilina

Operational data

Special qualification required
Current time UTC:
Current local time:
Weather at : LZZI - Zilina ( 31 km )
METAR: LZZI 170530Z VRB01KT 9999 -RA BKN010 OVC015 05/04 Q1002
TAF: TAF COR LZZI 170522Z 1706/1715 VRB02KT 9999 FEW012 BKN024 TEMPO 1706/1709 -RA BKN012 BECMG 1707/1709 35006KT TEMPO 1711/1715 -SHRA BKN030CB
View NOTAMs / SUP AIP / TFR affecting this airport [VIEW]
Communications frequencies: [VIEW]

Runways:

RWY identifierQFULength (ft)Width (ft)SurfaceLDA (ft)
18R2625164GRASS
36L2625164GRASS
18L2625164GRASS
36R2625164GRASS

Airport contact information

Address: Martin Slovakia

Satellite view of LZMA